sensor_id;sensor_type;location;lat;lon;timestamp;pressure;altitude;pressure_sealevel;temperature;humidity
41688;BME280;27371;42.686;23.362;2023-01-31T00:01:12;162130.63;;;-0.27;71.39
41688;BME280;27371;42.686;23.362;2023-01-31T00:03:38;162108.06;;;-0.36;69.72
41688;BME280;27371;42.686;23.362;2023-01-31T00:06:28;162021.81;;;-0.69;69.55
41688;BME280;27371;42.686;23.362;2023-01-31T00:08:56;161938.28;;;-1.01;70.79
41688;BME280;27371;42.686;23.362;2023-01-31T00:11:23;161914.38;;;-1.10;72.27
41688;BME280;27371;42.686;23.362;2023-01-31T00:13:50;161923.69;;;-1.07;73.68
41688;BME280;27371;42.686;23.362;2023-01-31T00:16:17;161928.97;;;-1.05;74.05
41688;BME280;27371;42.686;23.362;2023-01-31T00:18:44;161917.06;;;-1.09;74.54
41688;BME280;27371;42.686;23.362;2023-01-31T00:21:14;161911.75;;;-1.12;74.81
41688;BME280;27371;42.686;23.362;2023-01-31T00:23:41;161895.84;;;-1.18;75.37
41688;BME280;27371;42.686;23.362;2023-01-31T00:26:16;161919.69;;;-1.08;75.50
41688;BME280;27371;42.686;23.362;2023-01-31T00:28:43;161944.91;;;-0.99;75.45
41688;BME280;27371;42.686;23.362;2023-01-31T00:31:10;161959.50;;;-0.93;74.68
41688;BME280;27371;42.686;23.362;2023-01-31T00:33:37;161956.81;;;-0.94;74.81
41688;BME280;27371;42.686;23.362;2023-01-31T00:36:09;161966.13;;;-0.91;74.49
41688;BME280;27371;42.686;23.362;2023-01-31T00:38:35;161958.19;;;-0.94;74.62
41688;BME280;27371;42.686;23.362;2023-01-31T00:41:02;161970.09;;;-0.89;74.54
41688;BME280;27371;42.686;23.362;2023-01-31T00:43:29;161967.44;;;-0.90;74.56
41688;BME280;27371;42.686;23.362;2023-01-31T00:45:55;161975.41;;;-0.87;74.68
41688;BME280;27371;42.686;23.362;2023-01-31T00:48:20;161975.41;;;-0.87;74.74
41688;BME280;27371;42.686;23.362;2023-01-31T00:50:46;161983.34;;;-0.84;74.58
41688;BME280;27371;42.686;23.362;2023-01-31T00:53:11;161994.00;;;-0.80;74.75
41688;BME280;27371;42.686;23.362;2023-01-31T00:55:37;161991.31;;;-0.81;74.60
41688;BME280;27371;42.686;23.362;2023-01-31T00:58:03;162000.56;;;-0.77;74.30
41688;BME280;27371;42.686;23.362;2023-01-31T01:03:03;162008.59;;;-0.74;73.94
41688;BME280;27371;42.686;23.362;2023-01-31T01:05:29;162011.22;;;-0.73;74.29
41688;BME280;27371;42.686;23.362;2023-01-31T01:07:54;162000.56;;;-0.77;73.94
41688;BME280;27371;42.686;23.362;2023-01-31T01:10:20;162003.25;;;-0.76;73.73
41688;BME280;27371;42.686;23.362;2023-01-31T01:12:45;162004.56;;;-0.76;73.54
41688;BME280;27371;42.686;23.362;2023-01-31T01:15:11;161999.25;;;-0.78;73.44
41688;BME280;27371;42.686;23.362;2023-01-31T01:17:36;162005.91;;;-0.75;73.66
41688;BME280;27371;42.686;23.362;2023-01-31T01:20:02;162000.56;;;-0.77;73.58
41688;BME280;27371;42.686;23.362;2023-01-31T01:22:32;162012.53;;;-0.73;73.51
41688;BME280;27371;42.686;23.362;2023-01-31T01:24:57;161995.31;;;-0.79;73.33
41688;BME280;27371;42.686;23.362;2023-01-31T01:27:23;161994.00;;;-0.80;73.17
41688;BME280;27371;42.686;23.362;2023-01-31T01:29:48;161996.63;;;-0.79;73.17
41688;BME280;27371;42.686;23.362;2023-01-31T01:32:14;162003.25;;;-0.76;73.18
41688;BME280;27371;42.686;23.362;2023-01-31T01:34:39;162012.53;;;-0.73;72.82
41688;BME280;27371;42.686;23.362;2023-01-31T01:37:07;162016.53;;;-0.71;72.16
41688;BME280;27371;42.686;23.362;2023-01-31T01:39:53;162025.81;;;-0.68;72.34
41688;BME280;27371;42.686;23.362;2023-01-31T01:42:21;162032.44;;;-0.65;71.86
41688;BME280;27371;42.686;23.362;2023-01-31T01:49:49;162062.94;;;-0.53;70.59
41688;BME280;27371;42.686;23.362;2023-01-31T01:52:16;162066.94;;;-0.52;69.87
41688;BME280;27371;42.686;23.362;2023-01-31T01:54:50;162076.22;;;-0.48;69.36
41688;BME280;27371;42.686;23.362;2023-01-31T01:57:22;162082.84;;;-0.46;69.44
41688;BME280;27371;42.686;23.362;2023-01-31T02:02:34;162104.06;;;-0.37;68.35
41688;BME280;27371;42.686;23.362;2023-01-31T02:05:01;162139.91;;;-0.24;67.95
41688;BME280;27371;42.686;23.362;2023-01-31T02:07:27;162155.81;;;-0.17;67.03
41688;BME280;27371;42.686;23.362;2023-01-31T02:10:01;162171.72;;;-0.11;66.44
41688;BME280;27371;42.686;23.362;2023-01-31T02:12:27;162163.75;;;-0.14;65.65
41688;BME280;27371;42.686;23.362;2023-01-31T02:14:54;162190.31;;;-0.04;65.85
41688;BME280;27371;42.686;23.362;2023-01-31T02:17:20;162200.97;;;0.00;65.35
41688;BME280;27371;42.686;23.362;2023-01-31T02:22:32;162210.22;;;0.04;63.57
41688;BME280;27371;42.686;23.362;2023-01-31T02:33:23;162159.81;;;-0.16;63.19
41688;BME280;27371;42.686;23.362;2023-01-31T02:41:35;162185.00;;;-0.06;63.07
41688;BME280;27371;42.686;23.362;2023-01-31T02:44:26;162194.31;;;-0.03;62.81
41688;BME280;27371;42.686;23.362;2023-01-31T02:50:02;162190.31;;;-0.04;62.59
41688;BME280;27371;42.686;23.362;2023-01-31T02:52:43;162183.69;;;-0.07;62.78
41688;BME280;27371;42.686;23.362;2023-01-31T02:58:21;162199.59;;;-0.01;62.75
41688;BME280;27371;42.686;23.362;2023-01-31T03:00:48;162194.31;;;-0.03;63.40
41688;BME280;27371;42.686;23.362;2023-01-31T03:03:34;162185.00;;;-0.06;64.21
41688;BME280;27371;42.686;23.362;2023-01-31T03:09:03;162173.09;;;-0.11;64.39
41688;BME280;27371;42.686;23.362;2023-01-31T03:17:37;162138.59;;;-0.24;65.45
41688;BME280;27371;42.686;23.362;2023-01-31T03:20:18;162122.66;;;-0.30;65.45
41688;BME280;27371;42.686;23.362;2023-01-31T03:22:47;162119.97;;;-0.31;65.81
41688;BME280;27371;42.686;23.362;2023-01-31T03:25:17;162114.66;;;-0.33;66.21
41688;BME280;27371;42.686;23.362;2023-01-31T03:27:47;162092.13;;;-0.42;67.00
41688;BME280;27371;42.686;23.362;2023-01-31T03:32:51;162073.56;;;-0.49;67.16
41688;BME280;27371;42.686;23.362;2023-01-31T03:35:20;162080.22;;;-0.47;67.53
41688;BME280;27371;42.686;23.362;2023-01-31T03:38:05;162061.63;;;-0.54;68.02
41688;BME280;27371;42.686;23.362;2023-01-31T03:40:40;162061.63;;;-0.54;68.00
41688;BME280;27371;42.686;23.362;2023-01-31T03:43:38;162048.34;;;-0.59;68.86
41688;BME280;27371;42.686;23.362;2023-01-31T03:46:12;162044.38;;;-0.60;69.12
41688;BME280;27371;42.686;23.362;2023-01-31T03:48:42;162048.34;;;-0.59;69.43
41688;BME280;27371;42.686;23.362;2023-01-31T03:51:15;162048.34;;;-0.59;70.13
41688;BME280;27371;42.686;23.362;2023-01-31T03:53:52;162037.75;;;-0.63;70.54
41688;BME280;27371;42.686;23.362;2023-01-31T03:56:41;162058.97;;;-0.55;71.00
41688;BME280;27371;42.686;23.362;2023-01-31T03:59:08;162074.88;;;-0.49;70.95
41688;BME280;27371;42.686;23.362;2023-01-31T04:01:38;162086.84;;;-0.44;71.17
41688;BME280;27371;42.686;23.362;2023-01-31T04:04:26;162092.13;;;-0.42;71.27
41688;BME280;27371;42.686;23.362;2023-01-31T04:06:53;162106.72;;;-0.36;71.02
41688;BME280;27371;42.686;23.362;2023-01-31T04:09:19;162118.66;;;-0.32;71.04
41688;BME280;27371;42.686;23.362;2023-01-31T04:11:49;162123.97;;;-0.30;70.97
41688;BME280;27371;42.686;23.362;2023-01-31T04:14:15;162138.59;;;-0.24;71.01
41688;BME280;27371;42.686;23.362;2023-01-31T04:16:41;162145.22;;;-0.21;70.98
41688;BME280;27371;42.686;23.362;2023-01-31T04:19:07;162153.16;;;-0.18;71.33
41688;BME280;27371;42.686;23.362;2023-01-31T04:21:32;162125.31;;;-0.29;70.82
41688;BME280;27371;42.686;23.362;2023-01-31T04:23:57;162094.81;;;-0.41;71.50
41688;BME280;27371;42.686;23.362;2023-01-31T04:26:23;162078.84;;;-0.47;72.29
41688;BME280;27371;42.686;23.362;2023-01-31T04:28:49;162070.88;;;-0.50;73.38
41688;BME280;27371;42.686;23.362;2023-01-31T04:31:14;162082.84;;;-0.46;73.71
41688;BME280;27371;42.686;23.362;2023-01-31T04:33:40;162100.06;;;-0.39;74.00
41688;BME280;27371;42.686;23.362;2023-01-31T04:36:06;162094.81;;;-0.41;74.44
41688;BME280;27371;42.686;23.362;2023-01-31T04:38:32;162085.47;;;-0.45;74.75
41688;BME280;27371;42.686;23.362;2023-01-31T04:40:57;162085.47;;;-0.45;75.04
41688;BME280;27371;42.686;23.362;2023-01-31T04:43:23;162080.22;;;-0.47;75.65
41688;BME280;27371;42.686;23.362;2023-01-31T04:45:48;162032.44;;;-0.65;75.39
41688;BME280;27371;42.686;23.362;2023-01-31T04:48:14;162076.22;;;-0.48;75.61
41688;BME280;27371;42.686;23.362;2023-01-31T04:50:39;162076.22;;;-0.48;75.80
41688;BME280;27371;42.686;23.362;2023-01-31T04:53:05;162072.25;;;-0.50;76.08
41688;BME280;27371;42.686;23.362;2023-01-31T04:55:33;162053.66;;;-0.57;76.40
41688;BME280;27371;42.686;23.362;2023-01-31T04:57:58;162041.72;;;-0.61;76.67
41688;BME280;27371;42.686;23.362;2023-01-31T05:00:24;162058.97;;;-0.55;76.74
41688;BME280;27371;42.686;23.362;2023-01-31T05:02:49;162048.34;;;-0.59;77.16
41688;BME280;27371;42.686;23.362;2023-01-31T05:05:15;162036.38;;;-0.63;77.28
41688;BME280;27371;42.686;23.362;2023-01-31T05:07:43;162048.34;;;-0.59;78.14
41688;BME280;27371;42.686;23.362;2023-01-31T05:10:09;162073.56;;;-0.49;78.14
41688;BME280;27371;42.686;23.362;2023-01-31T05:12:35;162218.19;;;0.07;84.70
41688;BME280;27371;42.686;23.362;2023-01-31T05:15:01;162284.53;;;0.32;79.35
41688;BME280;27371;42.686;23.362;2023-01-31T05:17:27;162239.44;;;0.15;76.47
41688;BME280;27371;42.686;23.362;2023-01-31T05:19:57;162183.69;;;-0.07;76.00
41688;BME280;27371;42.686;23.362;2023-01-31T05:22:23;162141.22;;;-0.23;76.15
41688;BME280;27371;42.686;23.362;2023-01-31T05:24:50;162110.72;;;-0.35;76.68
41688;BME280;27371;42.686;23.362;2023-01-31T05:27:16;162090.78;;;-0.42;77.01
41688;BME280;27371;42.686;23.362;2023-01-31T05:29:41;162116.03;;;-0.33;77.44
41688;BME280;27371;42.686;23.362;2023-01-31T05:32:07;162106.72;;;-0.36;77.56
41688;BME280;27371;42.686;23.362;2023-01-31T05:34:33;162123.97;;;-0.30;77.60
41688;BME280;27371;42.686;23.362;2023-01-31T05:36:59;162121.31;;;-0.31;77.57
41688;BME280;27371;42.686;23.362;2023-01-31T05:39:25;162126.63;;;-0.29;77.58
41688;BME280;27371;42.686;23.362;2023-01-31T05:41:51;162131.94;;;-0.27;77.49
41688;BME280;27371;42.686;23.362;2023-01-31T05:44:18;162137.25;;;-0.25;77.54
41688;BME280;27371;42.686;23.362;2023-01-31T05:46:43;162139.91;;;-0.24;77.64
41688;BME280;27371;42.686;23.362;2023-01-31T05:49:09;162133.25;;;-0.26;77.42
41688;BME280;27371;42.686;23.362;2023-01-31T05:51:35;162150.50;;;-0.19;77.27
41688;BME280;27371;42.686;23.362;2023-01-31T05:54:00;162105.38;;;-0.37;77.41
41688;BME280;27371;42.686;23.362;2023-01-31T05:56:26;162157.13;;;-0.17;77.15
41688;BME280;27371;42.686;23.362;2023-01-31T05:58:51;162155.81;;;-0.17;77.05
41688;BME280;27371;42.686;23.362;2023-01-31T06:01:21;162165.06;;;-0.14;76.89
41688;BME280;27371;42.686;23.362;2023-01-31T06:03:47;162165.06;;;-0.14;77.06
41688;BME280;27371;42.686;23.362;2023-01-31T06:06:13;162175.72;;;-0.10;76.70
41688;BME280;27371;42.686;23.362;2023-01-31T06:08:38;162178.34;;;-0.09;76.72
41688;BME280;27371;42.686;23.362;2023-01-31T06:11:06;162175.72;;;-0.10;76.66
41688;BME280;27371;42.686;23.362;2023-01-31T06:13:32;162186.31;;;-0.06;77.01
41688;BME280;27371;42.686;23.362;2023-01-31T06:15:58;162195.63;;;-0.02;76.72
41688;BME280;27371;42.686;23.362;2023-01-31T06:18:24;162199.59;;;-0.01;76.64
41688;BME280;27371;42.686;23.362;2023-01-31T06:20:51;162216.88;;;0.06;76.45
41688;BME280;27371;42.686;23.362;2023-01-31T06:23:16;162211.56;;;0.04;76.68
41688;BME280;27371;42.686;23.362;2023-01-31T06:25:42;162204.91;;;0.02;76.63
41688;BME280;27371;42.686;23.362;2023-01-31T06:28:07;162272.63;;;0.28;76.24
41688;BME280;27371;42.686;23.362;2023-01-31T06:30:33;162276.56;;;0.29;76.31
41688;BME280;27371;42.686;23.362;2023-01-31T06:32:59;162289.84;;;0.34;75.91
41688;BME280;27371;42.686;23.362;2023-01-31T06:35:25;162300.44;;;0.38;75.88
41688;BME280;27371;42.686;23.362;2023-01-31T06:37:50;162305.78;;;0.40;75.90
41688;BME280;27371;42.686;23.362;2023-01-31T06:40:16;162307.09;;;0.41;75.70
41688;BME280;27371;42.686;23.362;2023-01-31T06:42:41;162325.69;;;0.48;75.81
41688;BME280;27371;42.686;23.362;2023-01-31T06:45:08;162337.66;;;0.53;76.02
41688;BME280;27371;42.686;23.362;2023-01-31T06:47:33;162333.66;;;0.51;75.66
41688;BME280;27371;42.686;23.362;2023-01-31T06:49:59;162331.03;;;0.50;75.58
41688;BME280;27371;42.686;23.362;2023-01-31T06:52:24;162321.69;;;0.47;75.68
41688;BME280;27371;42.686;23.362;2023-01-31T06:54:50;162292.50;;;0.35;76.13
41688;BME280;27371;42.686;23.362;2023-01-31T06:57:15;162285.84;;;0.33;76.21
41688;BME280;27371;42.686;23.362;2023-01-31T06:59:41;162312.41;;;0.43;76.74
41688;BME280;27371;42.686;23.362;2023-01-31T07:02:09;162329.66;;;0.50;76.19
41688;BME280;27371;42.686;23.362;2023-01-31T07:04:34;162299.13;;;0.38;75.62
41688;BME280;27371;42.686;23.362;2023-01-31T07:07:00;162295.19;;;0.36;75.79
41688;BME280;27371;42.686;23.362;2023-01-31T07:09:26;162284.53;;;0.32;76.16
41688;BME280;27371;42.686;23.362;2023-01-31T07:11:51;162307.09;;;0.41;76.48
41688;BME280;27371;42.686;23.362;2023-01-31T07:14:17;162316.41;;;0.44;76.94
41688;BME280;27371;42.686;23.362;2023-01-31T07:16:42;162331.03;;;0.50;76.82
41688;BME280;27371;42.686;23.362;2023-01-31T07:19:08;162348.25;;;0.57;76.36
41688;BME280;27371;42.686;23.362;2023-01-31T07:21:33;162341.63;;;0.54;76.23
41688;BME280;27371;42.686;23.362;2023-01-31T07:24:00;162365.56;;;0.63;75.76
41688;BME280;27371;42.686;23.362;2023-01-31T07:26:26;162370.81;;;0.65;75.73
41688;BME280;27371;42.686;23.362;2023-01-31T07:28:52;162360.22;;;0.61;75.56
41688;BME280;27371;42.686;23.362;2023-01-31T07:31:17;162380.16;;;0.69;75.32
41688;BME280;27371;42.686;23.362;2023-01-31T07:33:43;162378.78;;;0.69;75.26
41688;BME280;27371;42.686;23.362;2023-01-31T07:36:12;162376.16;;;0.68;75.40
41688;BME280;27371;42.686;23.362;2023-01-31T07:38:38;162392.06;;;0.74;75.58
41688;BME280;27371;42.686;23.362;2023-01-31T07:41:04;162406.69;;;0.79;75.56
41688;BME280;27371;42.686;23.362;2023-01-31T07:43:30;162409.38;;;0.80;75.54
41688;BME280;27371;42.686;23.362;2023-01-31T07:45:56;162422.59;;;0.85;75.69
41688;BME280;27371;42.686;23.362;2023-01-31T07:48:22;162435.88;;;0.91;75.64
41688;BME280;27371;42.686;23.362;2023-01-31T07:50:52;162435.88;;;0.91;75.70
41688;BME280;27371;42.686;23.362;2023-01-31T07:53:22;162446.53;;;0.95;75.75
41688;BME280;27371;42.686;23.362;2023-01-31T07:55:47;162453.19;;;0.97;75.75
41688;BME280;27371;42.686;23.362;2023-01-31T07:58:13;162461.13;;;1.00;75.70
41688;BME280;27371;42.686;23.362;2023-01-31T08:00:39;162470.41;;;1.04;75.75
41688;BME280;27371;42.686;23.362;2023-01-31T08:03:26;162459.81;;;1.00;75.62
41688;BME280;27371;42.686;23.362;2023-01-31T08:08:25;162518.25;;;1.22;75.62
41688;BME280;27371;42.686;23.362;2023-01-31T08:10:51;162550.09;;;1.34;75.36
41688;BME280;27371;42.686;23.362;2023-01-31T08:13:16;162582.00;;;1.47;75.13
41688;BME280;27371;42.686;23.362;2023-01-31T08:15:42;162599.25;;;1.53;74.77
41688;BME280;27371;42.686;23.362;2023-01-31T08:18:07;162587.28;;;1.49;74.71
41688;BME280;27371;42.686;23.362;2023-01-31T08:20:33;162588.66;;;1.49;74.92
41688;BME280;27371;42.686;23.362;2023-01-31T08:22:58;162609.91;;;1.58;74.65
41688;BME280;27371;42.686;23.362;2023-01-31T08:25:25;162633.81;;;1.67;74.66
41688;BME280;27371;42.686;23.362;2023-01-31T08:27:53;162671.00;;;1.81;74.44
41688;BME280;27371;42.686;23.362;2023-01-31T08:30:19;162671.00;;;1.81;73.48
41688;BME280;27371;42.686;23.362;2023-01-31T08:32:44;162748.09;;;2.11;72.90
41688;BME280;27371;42.686;23.362;2023-01-31T08:35:10;162734.78;;;2.06;72.58
41688;BME280;27371;42.686;23.362;2023-01-31T08:37:35;162756.06;;;2.14;72.37
41688;BME280;27371;42.686;23.362;2023-01-31T08:40:01;162788.00;;;2.26;72.50
41688;BME280;27371;42.686;23.362;2023-01-31T08:42:26;162774.69;;;2.21;71.95
41688;BME280;27371;42.686;23.362;2023-01-31T08:44:52;162794.59;;;2.29;71.92
41688;BME280;27371;42.686;23.362;2023-01-31T08:47:17;162779.97;;;2.23;71.17
41688;BME280;27371;42.686;23.362;2023-01-31T08:49:43;162781.34;;;2.23;71.29
41688;BME280;27371;42.686;23.362;2023-01-31T08:52:08;162782.66;;;2.24;70.92
41688;BME280;27371;42.686;23.362;2023-01-31T08:54:34;162758.69;;;2.15;71.20
41688;BME280;27371;42.686;23.362;2023-01-31T08:56:59;162761.38;;;2.16;71.03
41688;BME280;27371;42.686;23.362;2023-01-31T08:59:25;162757.38;;;2.14;71.47
41688;BME280;27371;42.686;23.362;2023-01-31T09:01:50;162772.00;;;2.20;71.57
41688;BME280;27371;42.686;23.362;2023-01-31T09:04:16;162776.00;;;2.21;70.89
41688;BME280;27371;42.686;23.362;2023-01-31T09:06:41;162768.03;;;2.18;71.02
41688;BME280;27371;42.686;23.362;2023-01-31T09:09:07;162773.31;;;2.20;70.96
41688;BME280;27371;42.686;23.362;2023-01-31T09:11:32;162797.28;;;2.30;70.65
41688;BME280;27371;42.686;23.362;2023-01-31T09:14:00;162842.47;;;2.47;70.28
41688;BME280;27371;42.686;23.362;2023-01-31T09:16:25;162838.50;;;2.45;69.69
41688;BME280;27371;42.686;23.362;2023-01-31T09:18:52;162819.88;;;2.38;69.53
41688;BME280;27371;42.686;23.362;2023-01-31T09:21:19;162833.16;;;2.43;70.11
41688;BME280;27371;42.686;23.362;2023-01-31T09:23:46;162859.75;;;2.54;69.99
41688;BME280;27371;42.686;23.362;2023-01-31T09:26:13;162895.66;;;2.67;69.12
41688;BME280;27371;42.686;23.362;2023-01-31T09:28:40;162923.53;;;2.78;68.78
41688;BME280;27371;42.686;23.362;2023-01-31T09:31:11;162980.72;;;3.00;68.43
41688;BME280;27371;42.686;23.362;2023-01-31T09:33:38;163012.66;;;3.12;67.71
41688;BME280;27371;42.686;23.362;2023-01-31T09:36:08;163019.31;;;3.15;67.08
41688;BME280;27371;42.686;23.362;2023-01-31T09:38:34;162983.41;;;3.01;66.72
41688;BME280;27371;42.686;23.362;2023-01-31T09:41:03;162964.78;;;2.94;67.22
41688;BME280;27371;42.686;23.362;2023-01-31T09:43:38;162979.41;;;3.00;67.70
41688;BME280;27371;42.686;23.362;2023-01-31T09:46:05;162986.06;;;3.02;68.25
41688;BME280;27371;42.686;23.362;2023-01-31T09:48:37;162972.75;;;2.97;66.93
41688;BME280;27371;42.686;23.362;2023-01-31T09:51:04;162927.56;;;2.80;67.00
41688;BME280;27371;42.686;23.362;2023-01-31T09:53:33;162926.22;;;2.79;67.61
41688;BME280;27371;42.686;23.362;2023-01-31T10:01:25;162935.53;;;2.83;67.82
41688;BME280;27371;42.686;23.362;2023-01-31T10:12:06;162956.81;;;2.91;67.37
41688;BME280;27371;42.686;23.362;2023-01-31T10:17:21;162987.38;;;3.03;67.07
41688;BME280;27371;42.686;23.362;2023-01-31T10:19:55;162986.06;;;3.02;66.76
41688;BME280;27371;42.686;23.362;2023-01-31T10:22:39;163018.00;;;3.15;66.48
41688;BME280;27371;42.686;23.362;2023-01-31T10:30:25;163048.56;;;3.26;65.79
41688;BME280;27371;42.686;23.362;2023-01-31T10:33:01;163079.16;;;3.38;65.92
41688;BME280;27371;42.686;23.362;2023-01-31T10:35:28;163091.13;;;3.43;65.75
41688;BME280;27371;42.686;23.362;2023-01-31T10:38:14;163061.88;;;3.31;65.47
41688;BME280;27371;42.686;23.362;2023-01-31T10:40:44;163032.63;;;3.20;65.37
41688;BME280;27371;42.686;23.362;2023-01-31T10:43:20;162996.72;;;3.06;66.24
41688;BME280;27371;42.686;23.362;2023-01-31T10:45:47;162972.75;;;2.97;66.38
41688;BME280;27371;42.686;23.362;2023-01-31T10:48:21;162951.47;;;2.89;67.16
41688;BME280;27371;42.686;23.362;2023-01-31T10:56:47;162983.41;;;3.01;66.58
41688;BME280;27371;42.686;23.362;2023-01-31T10:59:24;162960.81;;;2.93;66.97
41688;BME280;27371;42.686;23.362;2023-01-31T11:01:50;162938.16;;;2.84;67.29
41688;BME280;27371;42.686;23.362;2023-01-31T11:04:29;162908.91;;;2.73;67.57
41688;BME280;27371;42.686;23.362;2023-01-31T11:06:57;162922.22;;;2.78;67.51
41688;BME280;27371;42.686;23.362;2023-01-31T11:09:25;162891.66;;;2.66;67.79
41688;BME280;27371;42.686;23.362;2023-01-31T11:11:58;162891.66;;;2.66;68.26
41688;BME280;27371;42.686;23.362;2023-01-31T11:14:25;162869.06;;;2.57;68.90
41688;BME280;27371;42.686;23.362;2023-01-31T11:16:57;162867.75;;;2.57;69.06
41688;BME280;27371;42.686;23.362;2023-01-31T11:21:53;162886.31;;;2.64;68.19
41688;BME280;27371;42.686;23.362;2023-01-31T11:24:20;162881.03;;;2.62;67.93
41688;BME280;27371;42.686;23.362;2023-01-31T11:27:03;162875.72;;;2.60;68.30
41688;BME280;27371;42.686;23.362;2023-01-31T11:29:35;162878.34;;;2.61;68.39
41688;BME280;27371;42.686;23.362;2023-01-31T11:32:04;162899.63;;;2.69;68.57
41688;BME280;27371;42.686;23.362;2023-01-31T11:34:31;162926.22;;;2.79;68.75
41688;BME280;27371;42.686;23.362;2023-01-31T11:37:12;162936.84;;;2.83;69.07
41688;BME280;27371;42.686;23.362;2023-01-31T11:39:38;162935.53;;;2.83;69.12
41688;BME280;27371;42.686;23.362;2023-01-31T11:42:15;162932.88;;;2.82;69.35
41688;BME280;27371;42.686;23.362;2023-01-31T11:44:57;162877.03;;;2.60;69.43
41688;BME280;27371;42.686;23.362;2023-01-31T11:47:33;162839.81;;;2.46;70.45
41688;BME280;27371;42.686;23.362;2023-01-31T11:50:02;162795.97;;;2.29;71.78
41688;BME280;27371;42.686;23.362;2023-01-31T11:52:31;162772.00;;;2.20;72.75
41688;BME280;27371;42.686;23.362;2023-01-31T11:55:06;162764.03;;;2.17;73.64
41688;BME280;27371;42.686;23.362;2023-01-31T11:57:35;162765.34;;;2.17;73.60
41688;BME280;27371;42.686;23.362;2023-01-31T12:00:05;162765.34;;;2.17;73.56
41688;BME280;27371;42.686;23.362;2023-01-31T12:02:37;162741.44;;;2.08;74.25
41688;BME280;27371;42.686;23.362;2023-01-31T12:05:13;162705.56;;;1.94;74.91
41688;BME280;27371;42.686;23.362;2023-01-31T12:07:50;162704.25;;;1.94;74.90
41688;BME280;27371;42.686;23.362;2023-01-31T12:13:11;162689.63;;;1.88;75.24
41688;BME280;27371;42.686;23.362;2023-01-31T12:15:55;162701.56;;;1.93;75.07
41688;BME280;27371;42.686;23.362;2023-01-31T12:21:29;162698.91;;;1.92;75.02
41688;BME280;27371;42.686;23.362;2023-01-31T12:24:21;162686.94;;;1.87;75.27
41688;BME280;27371;42.686;23.362;2023-01-31T12:35:30;162748.09;;;2.11;73.03
41688;BME280;27371;42.686;23.362;2023-01-31T12:41:16;162778.66;;;2.22;71.94
41688;BME280;27371;42.686;23.362;2023-01-31T12:57:59;162757.38;;;2.14;72.65
41688;BME280;27371;42.686;23.362;2023-01-31T13:03:38;162651.06;;;1.73;76.17
41688;BME280;27371;42.686;23.362;2023-01-31T13:06:21;162627.16;;;1.64;77.46
41688;BME280;27371;42.686;23.362;2023-01-31T13:09:03;162624.53;;;1.63;77.62
41688;BME280;27371;42.686;23.362;2023-01-31T13:11:41;162647.09;;;1.72;77.44
41688;BME280;27371;42.686;23.362;2023-01-31T13:14:19;162649.75;;;1.73;77.14
41688;BME280;27371;42.686;23.362;2023-01-31T13:16:47;162653.75;;;1.74;76.71
41688;BME280;27371;42.686;23.362;2023-01-31T13:19:25;162657.72;;;1.76;75.72
41688;BME280;27371;42.686;23.362;2023-01-31T13:22:00;162651.06;;;1.73;75.28
41688;BME280;27371;42.686;23.362;2023-01-31T13:24:32;162645.78;;;1.71;75.00
41688;BME280;27371;42.686;23.362;2023-01-31T13:27:08;162653.75;;;1.74;74.77
41688;BME280;27371;42.686;23.362;2023-01-31T13:29:46;162639.13;;;1.69;75.20
41688;BME280;27371;42.686;23.362;2023-01-31T13:32:34;162640.47;;;1.69;76.11
41688;BME280;27371;42.686;23.362;2023-01-31T13:35:23;162644.41;;;1.71;75.90
41688;BME280;27371;42.686;23.362;2023-01-31T13:37:53;162643.09;;;1.70;75.60
41688;BME280;27371;42.686;23.362;2023-01-31T13:40:23;162656.41;;;1.75;75.34
41688;BME280;27371;42.686;23.362;2023-01-31T13:42:50;162664.34;;;1.78;75.48
41688;BME280;27371;42.686;23.362;2023-01-31T13:45:33;162701.56;;;1.93;75.69
41688;BME280;27371;42.686;23.362;2023-01-31T13:48:07;162706.88;;;1.95;75.15
41688;BME280;27371;42.686;23.362;2023-01-31T13:50:41;162713.53;;;1.97;74.81
41688;BME280;27371;42.686;23.362;2023-01-31T13:53:30;162716.16;;;1.98;74.95
41688;BME280;27371;42.686;23.362;2023-01-31T13:55:59;162729.47;;;2.04;74.15
41688;BME280;27371;42.686;23.362;2023-01-31T13:58:33;162740.13;;;2.08;73.35
41688;BME280;27371;42.686;23.362;2023-01-31T14:01:11;162744.09;;;2.09;72.91
41688;BME280;27371;42.686;23.362;2023-01-31T14:17:13;162676.34;;;1.83;72.55
41688;BME280;27371;42.686;23.362;2023-01-31T14:22:27;162667.03;;;1.80;72.38
41688;BME280;27371;42.686;23.362;2023-01-31T14:24:57;162637.81;;;1.68;71.80
41688;BME280;27371;42.686;23.362;2023-01-31T14:27:30;162661.72;;;1.77;71.65
41688;BME280;27371;42.686;23.362;2023-01-31T14:32:59;162661.72;;;1.77;71.51
41688;BME280;27371;42.686;23.362;2023-01-31T14:52:14;162632.50;;;1.66;72.21
41688;BME280;27371;42.686;23.362;2023-01-31T14:57:31;162656.41;;;1.75;72.09
41688;BME280;27371;42.686;23.362;2023-01-31T15:00:22;162671.00;;;1.81;72.06
41688;BME280;27371;42.686;23.362;2023-01-31T15:05:48;162660.41;;;1.77;72.11
41688;BME280;27371;42.686;23.362;2023-01-31T15:11:09;162644.41;;;1.71;72.38
41688;BME280;27371;42.686;23.362;2023-01-31T15:13:51;162669.69;;;1.81;72.65
41688;BME280;27371;42.686;23.362;2023-01-31T15:18:52;162640.47;;;1.69;72.47
41688;BME280;27371;42.686;23.362;2023-01-31T15:21:25;162571.34;;;1.43;72.78
41688;BME280;27371;42.686;23.362;2023-01-31T15:23:53;162547.47;;;1.33;73.91
41688;BME280;27371;42.686;23.362;2023-01-31T15:26:19;162531.53;;;1.27;74.74
41688;BME280;27371;42.686;23.362;2023-01-31T15:28:45;162524.88;;;1.25;75.24
41688;BME280;27371;42.686;23.362;2023-01-31T15:31:18;162531.53;;;1.27;75.43
41688;BME280;27371;42.686;23.362;2023-01-31T15:33:50;162515.56;;;1.21;75.45
41688;BME280;27371;42.686;23.362;2023-01-31T15:36:57;162508.97;;;1.19;75.54